ENSO/SRP METAR and TAF weather

Enter ICAO airport designator
Station Type Date Time Source
ENSO METAR 2019/11/15 05:20 UTC NOAA

ENSO 150520Z 20002KT CAVOK 03/01 Q1018


Station Type Date Time Source
ENSO Decoded METAR 2019/11/15 05:20 UTC NOAA

Stord / Soerstokken, Norway (ENSO) 59-48N 005-21E
Nov 15, 2019 - 12:20 AM EST / 2019.11.15 0520 UTC
Wind: from the SSW (200 degrees) at 2 MPH (2 KT):0
Visibility: greater than 7 mile(s):0
Temperature: 37 F (3 C)
Dew Point: 33 F (1 C)
Relative Humidity: 86%
Pressure (altimeter): 30.06 in. Hg (1018 hPa)
ob: ENSO 150520Z 20002KT CAVOK 03/01 Q1018
cycle: 5

Station Type Date Time Source
ENSO TAF UTC NOAA

Error!

Example: see airport list